sensor_id;sensor_type;location;lat;lon;timestamp;temperature;humidity
18712;DHT22;9485;49.386;8.674;2022-07-29T00:01:36;26.80;37.50
18712;DHT22;9485;49.386;8.674;2022-07-29T00:06:58;26.70;37.70
18712;DHT22;9485;49.386;8.674;2022-07-29T00:12:19;26.60;38.60
18712;DHT22;9485;49.386;8.674;2022-07-29T00:17:39;26.50;38.60
18712;DHT22;9485;49.386;8.674;2022-07-29T00:23:02;26.50;39.10
18712;DHT22;9485;49.386;8.674;2022-07-29T00:28:22;26.40;39.70
18712;DHT22;9485;49.386;8.674;2022-07-29T00:33:43;26.30;39.70
18712;DHT22;9485;49.386;8.674;2022-07-29T00:39:04;26.30;40.10
18712;DHT22;9485;49.386;8.674;2022-07-29T00:44:25;26.20;40.60
18712;DHT22;9485;49.386;8.674;2022-07-29T00:49:46;26.10;40.50
18712;DHT22;9485;49.386;8.674;2022-07-29T00:55:11;26.10;40.90
18712;DHT22;9485;49.386;8.674;2022-07-29T01:00:33;26.10;41.80
18712;DHT22;9485;49.386;8.674;2022-07-29T01:05:54;26.10;41.50
18712;DHT22;9485;49.386;8.674;2022-07-29T01:11:17;26.00;41.80
18712;DHT22;9485;49.386;8.674;2022-07-29T01:16:42;26.00;42.30
18712;DHT22;9485;49.386;8.674;2022-07-29T01:22:20;25.90;42.50
18712;DHT22;9485;49.386;8.674;2022-07-29T01:28:06;25.90;43.10
18712;DHT22;9485;49.386;8.674;2022-07-29T01:33:40;25.70;43.90
18712;DHT22;9485;49.386;8.674;2022-07-29T01:39:12;25.60;43.40
18712;DHT22;9485;49.386;8.674;2022-07-29T01:44:44;25.50;43.30
18712;DHT22;9485;49.386;8.674;2022-07-29T01:50:12;25.50;43.90
18712;DHT22;9485;49.386;8.674;2022-07-29T01:55:39;25.50;43.80
18712;DHT22;9485;49.386;8.674;2022-07-29T02:01:03;25.50;44.10
18712;DHT22;9485;49.386;8.674;2022-07-29T02:06:26;25.50;43.90
18712;DHT22;9485;49.386;8.674;2022-07-29T02:11:52;25.50;44.40
18712;DHT22;9485;49.386;8.674;2022-07-29T02:17:21;25.50;44.60
18712;DHT22;9485;49.386;8.674;2022-07-29T02:22:46;25.50;44.70
18712;DHT22;9485;49.386;8.674;2022-07-29T02:28:09;25.50;45.00
18712;DHT22;9485;49.386;8.674;2022-07-29T02:33:31;25.50;45.10
18712;DHT22;9485;49.386;8.674;2022-07-29T02:38:55;25.50;45.00
18712;DHT22;9485;49.386;8.674;2022-07-29T02:44:24;25.50;45.20
18712;DHT22;9485;49.386;8.674;2022-07-29T02:49:53;25.50;45.30
18712;DHT22;9485;49.386;8.674;2022-07-29T02:55:24;25.40;45.80
18712;DHT22;9485;49.386;8.674;2022-07-29T03:00:50;25.30;45.90
18712;DHT22;9485;49.386;8.674;2022-07-29T03:06:13;25.20;45.50
18712;DHT22;9485;49.386;8.674;2022-07-29T03:11:37;25.20;45.70
18712;DHT22;9485;49.386;8.674;2022-07-29T03:16:58;25.20;46.00
18712;DHT22;9485;49.386;8.674;2022-07-29T03:22:19;25.10;45.90
18712;DHT22;9485;49.386;8.674;2022-07-29T03:27:42;25.10;46.10
18712;DHT22;9485;49.386;8.674;2022-07-29T03:33:02;25.00;46.30
18712;DHT22;9485;49.386;8.674;2022-07-29T03:38:25;25.00;45.90
18712;DHT22;9485;49.386;8.674;2022-07-29T03:43:52;24.90;45.90
18712;DHT22;9485;49.386;8.674;2022-07-29T03:49:15;24.80;45.80
18712;DHT22;9485;49.386;8.674;2022-07-29T03:54:36;24.60;46.00
18712;DHT22;9485;49.386;8.674;2022-07-29T04:00:00;24.50;45.90
18712;DHT22;9485;49.386;8.674;2022-07-29T04:05:23;24.40;46.00
18712;DHT22;9485;49.386;8.674;2022-07-29T04:10:43;24.30;46.10
18712;DHT22;9485;49.386;8.674;2022-07-29T04:16:05;24.20;46.50
18712;DHT22;9485;49.386;8.674;2022-07-29T04:21:25;24.10;46.90
18712;DHT22;9485;49.386;8.674;2022-07-29T04:26:47;24.00;46.90
18712;DHT22;9485;49.386;8.674;2022-07-29T04:32:09;23.90;47.20
18712;DHT22;9485;49.386;8.674;2022-07-29T04:37:29;23.80;47.80
18712;DHT22;9485;49.386;8.674;2022-07-29T04:42:50;23.70;47.70
18712;DHT22;9485;49.386;8.674;2022-07-29T04:48:12;23.60;47.80
18712;DHT22;9485;49.386;8.674;2022-07-29T04:53:32;23.50;48.20
18712;DHT22;9485;49.386;8.674;2022-07-29T04:58:53;23.40;47.80
18712;DHT22;9485;49.386;8.674;2022-07-29T05:04:15;23.30;48.00
18712;DHT22;9485;49.386;8.674;2022-07-29T05:09:36;23.30;48.20
18712;DHT22;9485;49.386;8.674;2022-07-29T05:14:57;23.20;48.10
18712;DHT22;9485;49.386;8.674;2022-07-29T05:20:19;23.20;48.20
18712;DHT22;9485;49.386;8.674;2022-07-29T05:25:44;23.30;48.50
18712;DHT22;9485;49.386;8.674;2022-07-29T05:31:05;23.30;48.30
18712;DHT22;9485;49.386;8.674;2022-07-29T05:36:27;23.40;48.40
18712;DHT22;9485;49.386;8.674;2022-07-29T05:41:47;23.50;48.70
18712;DHT22;9485;49.386;8.674;2022-07-29T05:47:08;23.60;48.60
18712;DHT22;9485;49.386;8.674;2022-07-29T05:52:30;23.70;48.80
18712;DHT22;9485;49.386;8.674;2022-07-29T05:57:52;23.90;49.10
18712;DHT22;9485;49.386;8.674;2022-07-29T06:03:12;24.00;49.20
18712;DHT22;9485;49.386;8.674;2022-07-29T06:08:35;24.20;49.10
18712;DHT22;9485;49.386;8.674;2022-07-29T06:13:56;24.40;49.20
18712;DHT22;9485;49.386;8.674;2022-07-29T06:19:16;24.60;48.90
18712;DHT22;9485;49.386;8.674;2022-07-29T06:24:39;24.80;48.70
18712;DHT22;9485;49.386;8.674;2022-07-29T06:30:04;25.10;48.60
18712;DHT22;9485;49.386;8.674;2022-07-29T06:35:26;25.30;48.60
18712;DHT22;9485;49.386;8.674;2022-07-29T06:40:47;25.50;48.00
18712;DHT22;9485;49.386;8.674;2022-07-29T06:46:22;25.70;47.90
18712;DHT22;9485;49.386;8.674;2022-07-29T06:51:42;25.90;48.00
18712;DHT22;9485;49.386;8.674;2022-07-29T06:57:04;26.20;47.80
18712;DHT22;9485;49.386;8.674;2022-07-29T07:02:25;26.30;47.60
18712;DHT22;9485;49.386;8.674;2022-07-29T07:07:47;26.40;47.30
18712;DHT22;9485;49.386;8.674;2022-07-29T07:13:09;26.50;47.20
18712;DHT22;9485;49.386;8.674;2022-07-29T07:18:29;26.60;47.10
18712;DHT22;9485;49.386;8.674;2022-07-29T07:23:50;26.80;47.10
18712;DHT22;9485;49.386;8.674;2022-07-29T07:29:12;27.00;47.00
18712;DHT22;9485;49.386;8.674;2022-07-29T07:34:33;27.20;46.90
18712;DHT22;9485;49.386;8.674;2022-07-29T07:39:53;27.50;46.60
18712;DHT22;9485;49.386;8.674;2022-07-29T07:45:16;27.70;46.10
18712;DHT22;9485;49.386;8.674;2022-07-29T07:50:36;27.70;46.10
18712;DHT22;9485;49.386;8.674;2022-07-29T07:55:57;27.80;46.20
18712;DHT22;9485;49.386;8.674;2022-07-29T08:01:19;27.90;46.50
18712;DHT22;9485;49.386;8.674;2022-07-29T08:06:42;28.20;46.60
18712;DHT22;9485;49.386;8.674;2022-07-29T08:12:03;28.40;46.20
18712;DHT22;9485;49.386;8.674;2022-07-29T08:17:26;28.70;46.50
18712;DHT22;9485;49.386;8.674;2022-07-29T08:22:47;29.20;46.40
18712;DHT22;9485;49.386;8.674;2022-07-29T08:28:07;30.00;46.00
18712;DHT22;9485;49.386;8.674;2022-07-29T08:33:29;30.80;45.70
18712;DHT22;9485;49.386;8.674;2022-07-29T08:38:50;31.60;44.30
18712;DHT22;9485;49.386;8.674;2022-07-29T08:44:10;32.10;43.50
18712;DHT22;9485;49.386;8.674;2022-07-29T08:49:34;32.20;42.40
18712;DHT22;9485;49.386;8.674;2022-07-29T08:54:55;32.10;42.00
18712;DHT22;9485;49.386;8.674;2022-07-29T09:00:18;32.00;42.60
18712;DHT22;9485;49.386;8.674;2022-07-29T09:05:41;32.50;42.70
18712;DHT22;9485;49.386;8.674;2022-07-29T09:11:02;33.20;41.90
18712;DHT22;9485;49.386;8.674;2022-07-29T09:16:23;33.70;41.30
18712;DHT22;9485;49.386;8.674;2022-07-29T09:21:45;34.10;40.70
18712;DHT22;9485;49.386;8.674;2022-07-29T09:27:21;34.20;40.40
18712;DHT22;9485;49.386;8.674;2022-07-29T09:32:55;34.10;39.70
18712;DHT22;9485;49.386;8.674;2022-07-29T09:38:18;33.90;40.00
18712;DHT22;9485;49.386;8.674;2022-07-29T09:43:39;33.60;40.00
18712;DHT22;9485;49.386;8.674;2022-07-29T09:49:09;33.50;40.10
18712;DHT22;9485;49.386;8.674;2022-07-29T09:54:32;33.30;40.10
18712;DHT22;9485;49.386;8.674;2022-07-29T09:59:57;33.30;40.60
18712;DHT22;9485;49.386;8.674;2022-07-29T10:05:21;33.40;41.00
18712;DHT22;9485;49.386;8.674;2022-07-29T10:10:44;33.90;40.60
18712;DHT22;9485;49.386;8.674;2022-07-29T10:16:04;34.50;40.40
18712;DHT22;9485;49.386;8.674;2022-07-29T10:21:26;35.10;39.60
18712;DHT22;9485;49.386;8.674;2022-07-29T10:26:48;35.50;39.20
18712;DHT22;9485;49.386;8.674;2022-07-29T10:32:22;35.90;38.80
18712;DHT22;9485;49.386;8.674;2022-07-29T10:38:23;36.20;37.00
18712;DHT22;9485;49.386;8.674;2022-07-29T10:43:56;36.50;36.80
18712;DHT22;9485;49.386;8.674;2022-07-29T10:49:21;36.80;37.40
18712;DHT22;9485;49.386;8.674;2022-07-29T10:54:46;37.10;37.50
18712;DHT22;9485;49.386;8.674;2022-07-29T11:00:31;37.40;37.00
18712;DHT22;9485;49.386;8.674;2022-07-29T11:05:54;37.60;36.40
18712;DHT22;9485;49.386;8.674;2022-07-29T11:11:36;37.90;36.50
18712;DHT22;9485;49.386;8.674;2022-07-29T11:17:03;38.20;35.20
18712;DHT22;9485;49.386;8.674;2022-07-29T11:22:32;38.30;35.50
18712;DHT22;9485;49.386;8.674;2022-07-29T11:27:54;38.30;34.90
18712;DHT22;9485;49.386;8.674;2022-07-29T11:33:33;38.40;34.60
18712;DHT22;9485;49.386;8.674;2022-07-29T11:39:25;38.30;34.40
18712;DHT22;9485;49.386;8.674;2022-07-29T11:44:56;38.30;34.00
18712;DHT22;9485;49.386;8.674;2022-07-29T11:50:30;38.40;33.50
18712;DHT22;9485;49.386;8.674;2022-07-29T11:55:55;38.50;34.20
18712;DHT22;9485;49.386;8.674;2022-07-29T12:01:17;38.70;34.10
18712;DHT22;9485;49.386;8.674;2022-07-29T12:06:40;38.90;33.40
18712;DHT22;9485;49.386;8.674;2022-07-29T12:12:01;38.80;33.60
18712;DHT22;9485;49.386;8.674;2022-07-29T12:17:26;38.90;33.60
18712;DHT22;9485;49.386;8.674;2022-07-29T12:22:49;38.90;32.90
18712;DHT22;9485;49.386;8.674;2022-07-29T12:28:11;38.90;33.40
18712;DHT22;9485;49.386;8.674;2022-07-29T12:33:33;39.00;33.20
18712;DHT22;9485;49.386;8.674;2022-07-29T12:38:55;39.00;33.10
18712;DHT22;9485;49.386;8.674;2022-07-29T12:44:16;39.00;32.70
18712;DHT22;9485;49.386;8.674;2022-07-29T12:49:36;39.00;32.80
18712;DHT22;9485;49.386;8.674;2022-07-29T12:54:59;39.00;32.10
18712;DHT22;9485;49.386;8.674;2022-07-29T13:00:23;39.00;32.20
18712;DHT22;9485;49.386;8.674;2022-07-29T13:05:45;38.90;31.50
18712;DHT22;9485;49.386;8.674;2022-07-29T13:11:07;38.70;31.40
18712;DHT22;9485;49.386;8.674;2022-07-29T13:16:28;38.20;31.30
18712;DHT22;9485;49.386;8.674;2022-07-29T13:21:49;37.70;32.10
18712;DHT22;9485;49.386;8.674;2022-07-29T13:27:10;37.60;32.50
18712;DHT22;9485;49.386;8.674;2022-07-29T13:32:32;37.60;32.00
18712;DHT22;9485;49.386;8.674;2022-07-29T13:37:53;37.40;31.60
18712;DHT22;9485;49.386;8.674;2022-07-29T13:43:15;36.90;31.50
18712;DHT22;9485;49.386;8.674;2022-07-29T13:48:36;36.40;31.50
18712;DHT22;9485;49.386;8.674;2022-07-29T13:53:56;36.00;31.80
18712;DHT22;9485;49.386;8.674;2022-07-29T13:59:19;35.60;31.90
18712;DHT22;9485;49.386;8.674;2022-07-29T14:04:39;35.20;32.00
18712;DHT22;9485;49.386;8.674;2022-07-29T14:10:00;34.80;32.60
18712;DHT22;9485;49.386;8.674;2022-07-29T14:15:22;34.60;32.80
18712;DHT22;9485;49.386;8.674;2022-07-29T14:20:43;34.40;33.40
18712;DHT22;9485;49.386;8.674;2022-07-29T14:26:03;34.30;33.30
18712;DHT22;9485;49.386;8.674;2022-07-29T14:31:25;34.30;33.50
18712;DHT22;9485;49.386;8.674;2022-07-29T14:36:45;34.20;33.20
18712;DHT22;9485;49.386;8.674;2022-07-29T14:42:06;34.20;32.80
18712;DHT22;9485;49.386;8.674;2022-07-29T14:47:28;34.10;32.50
18712;DHT22;9485;49.386;8.674;2022-07-29T14:52:49;34.00;32.70
18712;DHT22;9485;49.386;8.674;2022-07-29T14:58:09;33.90;32.60
18712;DHT22;9485;49.386;8.674;2022-07-29T15:03:31;33.80;32.60
18712;DHT22;9485;49.386;8.674;2022-07-29T15:08:52;33.60;33.10
18712;DHT22;9485;49.386;8.674;2022-07-29T15:14:13;33.60;33.10
18712;DHT22;9485;49.386;8.674;2022-07-29T15:19:35;33.60;33.00
18712;DHT22;9485;49.386;8.674;2022-07-29T15:24:55;33.60;32.90
18712;DHT22;9485;49.386;8.674;2022-07-29T15:30:16;33.60;33.10
18712;DHT22;9485;49.386;8.674;2022-07-29T15:35:38;33.50;33.60
18712;DHT22;9485;49.386;8.674;2022-07-29T15:40:58;33.30;33.30
18712;DHT22;9485;49.386;8.674;2022-07-29T15:46:19;32.90;33.90
18712;DHT22;9485;49.386;8.674;2022-07-29T15:52:00;32.50;34.10
18712;DHT22;9485;49.386;8.674;2022-07-29T15:57:23;32.40;34.20
18712;DHT22;9485;49.386;8.674;2022-07-29T16:02:44;32.20;34.10
18712;DHT22;9485;49.386;8.674;2022-07-29T16:08:07;32.20;34.40
18712;DHT22;9485;49.386;8.674;2022-07-29T16:13:28;32.20;34.70
18712;DHT22;9485;49.386;8.674;2022-07-29T16:18:48;32.20;34.10
18712;DHT22;9485;49.386;8.674;2022-07-29T16:24:10;32.20;34.00
18712;DHT22;9485;49.386;8.674;2022-07-29T16:29:30;32.20;33.70
18712;DHT22;9485;49.386;8.674;2022-07-29T16:34:51;32.10;33.70
18712;DHT22;9485;49.386;8.674;2022-07-29T16:40:13;32.00;33.50
18712;DHT22;9485;49.386;8.674;2022-07-29T16:45:34;31.90;33.10
18712;DHT22;9485;49.386;8.674;2022-07-29T16:50:54;31.90;33.10
18712;DHT22;9485;49.386;8.674;2022-07-29T16:56:16;31.80;33.00
18712;DHT22;9485;49.386;8.674;2022-07-29T17:01:37;31.80;32.90
18712;DHT22;9485;49.386;8.674;2022-07-29T17:06:58;31.80;33.00
18712;DHT22;9485;49.386;8.674;2022-07-29T17:12:20;31.80;32.80
18712;DHT22;9485;49.386;8.674;2022-07-29T17:17:40;31.80;32.70
18712;DHT22;9485;49.386;8.674;2022-07-29T17:23:01;31.80;32.90
18712;DHT22;9485;49.386;8.674;2022-07-29T17:28:23;31.90;32.70
18712;DHT22;9485;49.386;8.674;2022-07-29T17:33:43;31.90;32.70
18712;DHT22;9485;49.386;8.674;2022-07-29T17:39:05;32.00;33.00
18712;DHT22;9485;49.386;8.674;2022-07-29T17:44:28;32.10;32.60
18712;DHT22;9485;49.386;8.674;2022-07-29T17:49:49;32.10;32.10
18712;DHT22;9485;49.386;8.674;2022-07-29T17:55:09;32.00;33.00
18712;DHT22;9485;49.386;8.674;2022-07-29T18:00:33;31.80;32.80
18712;DHT22;9485;49.386;8.674;2022-07-29T18:05:54;31.50;33.20
18712;DHT22;9485;49.386;8.674;2022-07-29T18:11:15;31.30;33.50
18712;DHT22;9485;49.386;8.674;2022-07-29T18:16:37;31.00;34.00
18712;DHT22;9485;49.386;8.674;2022-07-29T18:21:57;30.70;34.20
18712;DHT22;9485;49.386;8.674;2022-07-29T18:27:18;30.50;34.40
18712;DHT22;9485;49.386;8.674;2022-07-29T18:32:40;30.40;34.70
18712;DHT22;9485;49.386;8.674;2022-07-29T18:38:00;30.20;35.10
18712;DHT22;9485;49.386;8.674;2022-07-29T18:43:21;30.10;35.00
18712;DHT22;9485;49.386;8.674;2022-07-29T18:48:42;30.00;35.40
18712;DHT22;9485;49.386;8.674;2022-07-29T18:54:03;29.90;35.60
18712;DHT22;9485;49.386;8.674;2022-07-29T18:59:24;29.70;35.70
18712;DHT22;9485;49.386;8.674;2022-07-29T19:04:47;29.60;36.00
18712;DHT22;9485;49.386;8.674;2022-07-29T19:10:08;29.40;36.40
18712;DHT22;9485;49.386;8.674;2022-07-29T19:15:30;29.20;36.70
18712;DHT22;9485;49.386;8.674;2022-07-29T19:20:52;28.90;37.00
18712;DHT22;9485;49.386;8.674;2022-07-29T19:26:13;28.70;37.50
18712;DHT22;9485;49.386;8.674;2022-07-29T19:31:33;28.50;38.00
18712;DHT22;9485;49.386;8.674;2022-07-29T19:36:55;28.30;38.20
18712;DHT22;9485;49.386;8.674;2022-07-29T19:42:15;28.10;38.60
18712;DHT22;9485;49.386;8.674;2022-07-29T19:47:36;28.00;38.70
18712;DHT22;9485;49.386;8.674;2022-07-29T19:52:59;27.90;39.20
18712;DHT22;9485;49.386;8.674;2022-07-29T19:58:19;27.80;39.40
18712;DHT22;9485;49.386;8.674;2022-07-29T20:03:40;27.70;39.50
18712;DHT22;9485;49.386;8.674;2022-07-29T20:09:04;27.70;39.70
18712;DHT22;9485;49.386;8.674;2022-07-29T20:14:25;27.60;39.90
18712;DHT22;9485;49.386;8.674;2022-07-29T20:19:45;27.60;39.90
18712;DHT22;9485;49.386;8.674;2022-07-29T20:25:08;27.60;40.30
18712;DHT22;9485;49.386;8.674;2022-07-29T20:30:30;27.50;40.40
18712;DHT22;9485;49.386;8.674;2022-07-29T20:35:50;27.40;40.40
18712;DHT22;9485;49.386;8.674;2022-07-29T20:41:12;27.30;40.80
18712;DHT22;9485;49.386;8.674;2022-07-29T20:46:33;27.30;41.30
18712;DHT22;9485;49.386;8.674;2022-07-29T20:51:54;27.20;41.20
18712;DHT22;9485;49.386;8.674;2022-07-29T20:57:15;27.20;41.50
18712;DHT22;9485;49.386;8.674;2022-07-29T21:02:37;27.10;42.70
18712;DHT22;9485;49.386;8.674;2022-07-29T21:07:58;27.00;42.30
18712;DHT22;9485;49.386;8.674;2022-07-29T21:13:20;26.80;43.20
18712;DHT22;9485;49.386;8.674;2022-07-29T21:18:44;26.80;43.80
18712;DHT22;9485;49.386;8.674;2022-07-29T21:24:06;26.60;43.70
18712;DHT22;9485;49.386;8.674;2022-07-29T21:29:28;26.50;43.80
18712;DHT22;9485;49.386;8.674;2022-07-29T21:34:49;26.30;44.50
18712;DHT22;9485;49.386;8.674;2022-07-29T21:40:10;26.10;44.80
18712;DHT22;9485;49.386;8.674;2022-07-29T21:45:34;26.00;45.30
18712;DHT22;9485;49.386;8.674;2022-07-29T21:50:55;25.80;46.00
18712;DHT22;9485;49.386;8.674;2022-07-29T21:56:16;25.70;46.00
18712;DHT22;9485;49.386;8.674;2022-07-29T22:01:38;25.50;46.30
18712;DHT22;9485;49.386;8.674;2022-07-29T22:06:58;25.30;46.80
18712;DHT22;9485;49.386;8.674;2022-07-29T22:12:19;25.20;46.90
18712;DHT22;9485;49.386;8.674;2022-07-29T22:17:41;25.00;47.30
18712;DHT22;9485;49.386;8.674;2022-07-29T22:23:02;24.90;48.00
18712;DHT22;9485;49.386;8.674;2022-07-29T22:28:22;24.70;48.00
18712;DHT22;9485;49.386;8.674;2022-07-29T22:33:44;24.50;48.20
18712;DHT22;9485;49.386;8.674;2022-07-29T22:39:05;24.40;49.40
18712;DHT22;9485;49.386;8.674;2022-07-29T22:44:26;24.30;49.00
18712;DHT22;9485;49.386;8.674;2022-07-29T22:49:48;24.10;49.30
18712;DHT22;9485;49.386;8.674;2022-07-29T22:55:09;24.00;49.90
18712;DHT22;9485;49.386;8.674;2022-07-29T23:00:30;23.90;50.00
18712;DHT22;9485;49.386;8.674;2022-07-29T23:05:52;23.90;50.20
18712;DHT22;9485;49.386;8.674;2022-07-29T23:11:13;23.80;50.70
18712;DHT22;9485;49.386;8.674;2022-07-29T23:16:33;23.70;50.50
18712;DHT22;9485;49.386;8.674;2022-07-29T23:21:55;23.60;50.80
18712;DHT22;9485;49.386;8.674;2022-07-29T23:27:16;23.50;51.20
18712;DHT22;9485;49.386;8.674;2022-07-29T23:32:37;23.40;51.20
18712;DHT22;9485;49.386;8.674;2022-07-29T23:37:59;23.30;51.40
18712;DHT22;9485;49.386;8.674;2022-07-29T23:43:20;23.20;52.00
18712;DHT22;9485;49.386;8.674;2022-07-29T23:48:40;23.10;52.00
18712;DHT22;9485;49.386;8.674;2022-07-29T23:54:02;23.10;52.10
18712;DHT22;9485;49.386;8.674;2022-07-29T23:59:23;23.00;52.70
